sensor_id;sensor_type;location;lat;lon;timestamp;temperature;humidity
41944;DHT22;27636;52.610;13.244;2024-02-04T00:00:40;7.30;99.90
41944;DHT22;27636;52.610;13.244;2024-02-04T00:05:46;7.30;99.90
41944;DHT22;27636;52.610;13.244;2024-02-04T00:10:52;7.50;99.90
41944;DHT22;27636;52.610;13.244;2024-02-04T00:15:57;7.50;99.90
41944;DHT22;27636;52.610;13.244;2024-02-04T00:21:02;7.60;99.90
41944;DHT22;27636;52.610;13.244;2024-02-04T00:26:07;7.50;99.90
41944;DHT22;27636;52.610;13.244;2024-02-04T00:31:12;7.50;99.90
41944;DHT22;27636;52.610;13.244;2024-02-04T00:36:17;7.40;99.90
41944;DHT22;27636;52.610;13.244;2024-02-04T00:41:24;7.30;99.90
41944;DHT22;27636;52.610;13.244;2024-02-04T00:46:30;6.90;99.90
41944;DHT22;27636;52.610;13.244;2024-02-04T00:51:35;6.80;99.90
41944;DHT22;27636;52.610;13.244;2024-02-04T00:56:39;6.70;99.90
41944;DHT22;27636;52.610;13.244;2024-02-04T01:01:45;6.40;99.90
41944;DHT22;27636;52.610;13.244;2024-02-04T01:06:50;6.40;99.90
41944;DHT22;27636;52.610;13.244;2024-02-04T01:12:07;6.20;99.90
41944;DHT22;27636;52.610;13.244;2024-02-04T01:17:13;6.00;99.90
41944;DHT22;27636;52.610;13.244;2024-02-04T01:22:17;6.10;99.90
41944;DHT22;27636;52.610;13.244;2024-02-04T01:27:21;6.30;99.90
41944;DHT22;27636;52.610;13.244;2024-02-04T01:32:29;6.20;99.90
41944;DHT22;27636;52.610;13.244;2024-02-04T01:37:32;5.80;99.90
41944;DHT22;27636;52.610;13.244;2024-02-04T01:42:36;5.70;99.90
41944;DHT22;27636;52.610;13.244;2024-02-04T01:47:42;5.60;99.90
41944;DHT22;27636;52.610;13.244;2024-02-04T01:52:46;5.20;99.90
41944;DHT22;27636;52.610;13.244;2024-02-04T01:57:51;5.20;99.90
41944;DHT22;27636;52.610;13.244;2024-02-04T02:02:59;5.20;99.90
41944;DHT22;27636;52.610;13.244;2024-02-04T02:08:06;5.10;99.90
41944;DHT22;27636;52.610;13.244;2024-02-04T02:13:15;5.00;99.90
41944;DHT22;27636;52.610;13.244;2024-02-04T02:18:30;5.00;99.90
41944;DHT22;27636;52.610;13.244;2024-02-04T02:23:40;5.10;99.90
41944;DHT22;27636;52.610;13.244;2024-02-04T02:28:49;5.10;99.90
41944;DHT22;27636;52.610;13.244;2024-02-04T02:33:53;5.10;99.90
41944;DHT22;27636;52.610;13.244;2024-02-04T02:39:06;5.20;99.90
41944;DHT22;27636;52.610;13.244;2024-02-04T02:44:15;5.30;99.90
41944;DHT22;27636;52.610;13.244;2024-02-04T02:49:19;5.30;99.90
41944;DHT22;27636;52.610;13.244;2024-02-04T02:54:24;5.70;99.90
41944;DHT22;27636;52.610;13.244;2024-02-04T02:59:30;5.90;99.90
41944;DHT22;27636;52.610;13.244;2024-02-04T03:04:34;6.20;99.90
41944;DHT22;27636;52.610;13.244;2024-02-04T03:09:38;6.40;99.90
41944;DHT22;27636;52.610;13.244;2024-02-04T03:14:44;6.50;99.90
41944;DHT22;27636;52.610;13.244;2024-02-04T03:19:47;6.50;99.90
41944;DHT22;27636;52.610;13.244;2024-02-04T03:24:52;6.60;99.90
41944;DHT22;27636;52.610;13.244;2024-02-04T03:29:59;6.70;99.90
41944;DHT22;27636;52.610;13.244;2024-02-04T03:35:05;6.60;99.90
41944;DHT22;27636;52.610;13.244;2024-02-04T03:40:12;6.80;99.90
41944;DHT22;27636;52.610;13.244;2024-02-04T03:45:18;6.90;99.90
41944;DHT22;27636;52.610;13.244;2024-02-04T03:50:22;6.90;99.90
41944;DHT22;27636;52.610;13.244;2024-02-04T03:55:25;6.90;99.90
41944;DHT22;27636;52.610;13.244;2024-02-04T04:00:32;6.70;99.90
41944;DHT22;27636;52.610;13.244;2024-02-04T04:05:36;6.60;99.90
41944;DHT22;27636;52.610;13.244;2024-02-04T04:10:40;6.50;99.90
41944;DHT22;27636;52.610;13.244;2024-02-04T04:15:45;6.40;99.90
41944;DHT22;27636;52.610;13.244;2024-02-04T04:20:49;6.30;99.90
41944;DHT22;27636;52.610;13.244;2024-02-04T04:25:53;6.20;99.90
41944;DHT22;27636;52.610;13.244;2024-02-04T04:30:58;6.10;99.90
41944;DHT22;27636;52.610;13.244;2024-02-04T04:36:03;5.90;99.90
41944;DHT22;27636;52.610;13.244;2024-02-04T04:41:07;5.90;99.90
41944;DHT22;27636;52.610;13.244;2024-02-04T04:46:13;6.10;99.90
41944;DHT22;27636;52.610;13.244;2024-02-04T04:51:17;6.30;99.90
41944;DHT22;27636;52.610;13.244;2024-02-04T04:56:23;6.30;99.90
41944;DHT22;27636;52.610;13.244;2024-02-04T05:01:29;6.30;99.90
41944;DHT22;27636;52.610;13.244;2024-02-04T05:06:34;6.30;99.90
41944;DHT22;27636;52.610;13.244;2024-02-04T05:11:38;6.10;99.90
41944;DHT22;27636;52.610;13.244;2024-02-04T05:16:44;6.00;99.90
41944;DHT22;27636;52.610;13.244;2024-02-04T05:21:50;6.00;99.90
41944;DHT22;27636;52.610;13.244;2024-02-04T05:26:55;6.10;99.90
41944;DHT22;27636;52.610;13.244;2024-02-04T05:32:02;6.10;99.90
41944;DHT22;27636;52.610;13.244;2024-02-04T05:37:05;6.10;99.90
41944;DHT22;27636;52.610;13.244;2024-02-04T05:42:12;6.00;99.90
41944;DHT22;27636;52.610;13.244;2024-02-04T05:47:20;5.90;99.90
41944;DHT22;27636;52.610;13.244;2024-02-04T05:52:24;5.80;99.90
41944;DHT22;27636;52.610;13.244;2024-02-04T05:57:28;5.70;99.90
41944;DHT22;27636;52.610;13.244;2024-02-04T06:02:34;5.70;99.90
41944;DHT22;27636;52.610;13.244;2024-02-04T06:07:38;5.70;99.90
41944;DHT22;27636;52.610;13.244;2024-02-04T06:12:43;5.80;99.90
41944;DHT22;27636;52.610;13.244;2024-02-04T06:17:51;5.90;99.90
41944;DHT22;27636;52.610;13.244;2024-02-04T06:22:56;6.00;99.90
41944;DHT22;27636;52.610;13.244;2024-02-04T06:28:02;6.10;99.90
41944;DHT22;27636;52.610;13.244;2024-02-04T06:33:08;6.10;99.90
41944;DHT22;27636;52.610;13.244;2024-02-04T06:38:12;6.20;99.90
41944;DHT22;27636;52.610;13.244;2024-02-04T06:43:16;6.00;99.90
41944;DHT22;27636;52.610;13.244;2024-02-04T06:48:22;5.70;99.90
41944;DHT22;27636;52.610;13.244;2024-02-04T06:53:27;5.80;99.90
41944;DHT22;27636;52.610;13.244;2024-02-04T06:58:32;5.60;99.90
41944;DHT22;27636;52.610;13.244;2024-02-04T07:03:37;5.80;99.90
41944;DHT22;27636;52.610;13.244;2024-02-04T07:08:43;5.80;99.90
41944;DHT22;27636;52.610;13.244;2024-02-04T07:13:47;5.90;99.90
41944;DHT22;27636;52.610;13.244;2024-02-04T07:18:52;5.80;99.90
41944;DHT22;27636;52.610;13.244;2024-02-04T07:23:56;6.00;99.90
41944;DHT22;27636;52.610;13.244;2024-02-04T07:28:59;6.00;99.90
41944;DHT22;27636;52.610;13.244;2024-02-04T07:34:08;6.20;99.90
41944;DHT22;27636;52.610;13.244;2024-02-04T07:39:13;6.20;99.90
41944;DHT22;27636;52.610;13.244;2024-02-04T07:44:17;6.40;99.90
41944;DHT22;27636;52.610;13.244;2024-02-04T07:49:23;6.50;99.90
41944;DHT22;27636;52.610;13.244;2024-02-04T07:54:27;6.70;99.90
41944;DHT22;27636;52.610;13.244;2024-02-04T07:59:31;6.70;99.90
41944;DHT22;27636;52.610;13.244;2024-02-04T08:04:36;6.90;99.90
41944;DHT22;27636;52.610;13.244;2024-02-04T08:09:40;7.00;99.90
41944;DHT22;27636;52.610;13.244;2024-02-04T08:14:45;7.20;99.90
41944;DHT22;27636;52.610;13.244;2024-02-04T08:19:50;7.50;99.90
41944;DHT22;27636;52.610;13.244;2024-02-04T08:24:55;7.50;99.90
41944;DHT22;27636;52.610;13.244;2024-02-04T08:29:59;7.60;99.90
41944;DHT22;27636;52.610;13.244;2024-02-04T08:35:10;7.80;99.90
41944;DHT22;27636;52.610;13.244;2024-02-04T08:40:14;7.70;99.90
41944;DHT22;27636;52.610;13.244;2024-02-04T08:45:22;7.70;99.90
41944;DHT22;27636;52.610;13.244;2024-02-04T08:50:29;7.90;99.90
41944;DHT22;27636;52.610;13.244;2024-02-04T08:55:33;7.80;99.90
41944;DHT22;27636;52.610;13.244;2024-02-04T09:00:40;7.80;99.90
41944;DHT22;27636;52.610;13.244;2024-02-04T09:05:46;8.00;99.90
41944;DHT22;27636;52.610;13.244;2024-02-04T09:10:50;8.10;99.90
41944;DHT22;27636;52.610;13.244;2024-02-04T09:15:54;8.10;99.90
41944;DHT22;27636;52.610;13.244;2024-02-04T09:21:01;8.20;99.90
41944;DHT22;27636;52.610;13.244;2024-02-04T09:26:08;8.30;99.90
41944;DHT22;27636;52.610;13.244;2024-02-04T09:31:13;8.40;99.90
41944;DHT22;27636;52.610;13.244;2024-02-04T09:36:19;8.50;99.90
41944;DHT22;27636;52.610;13.244;2024-02-04T09:41:25;8.70;99.90
41944;DHT22;27636;52.610;13.244;2024-02-04T09:46:31;8.80;99.90
41944;DHT22;27636;52.610;13.244;2024-02-04T09:51:39;9.10;99.90
41944;DHT22;27636;52.610;13.244;2024-02-04T09:56:45;9.00;99.90
41944;DHT22;27636;52.610;13.244;2024-02-04T10:01:51;9.00;99.90
41944;DHT22;27636;52.610;13.244;2024-02-04T10:06:58;8.90;99.90
41944;DHT22;27636;52.610;13.244;2024-02-04T10:12:02;9.00;99.90
41944;DHT22;27636;52.610;13.244;2024-02-04T10:17:07;9.10;99.90
41944;DHT22;27636;52.610;13.244;2024-02-04T10:22:13;9.20;99.90
41944;DHT22;27636;52.610;13.244;2024-02-04T10:27:17;9.50;99.90
41944;DHT22;27636;52.610;13.244;2024-02-04T10:32:34;9.40;99.90
41944;DHT22;27636;52.610;13.244;2024-02-04T10:37:42;9.40;99.90
41944;DHT22;27636;52.610;13.244;2024-02-04T10:42:46;9.30;99.90
41944;DHT22;27636;52.610;13.244;2024-02-04T10:47:55;9.30;99.90
41944;DHT22;27636;52.610;13.244;2024-02-04T10:53:05;9.40;99.90
41944;DHT22;27636;52.610;13.244;2024-02-04T10:58:12;9.20;99.90
41944;DHT22;27636;52.610;13.244;2024-02-04T11:03:21;9.30;99.90
41944;DHT22;27636;52.610;13.244;2024-02-04T11:08:30;9.20;99.90
41944;DHT22;27636;52.610;13.244;2024-02-04T11:13:35;9.00;99.90
41944;DHT22;27636;52.610;13.244;2024-02-04T11:18:58;9.10;99.90
41944;DHT22;27636;52.610;13.244;2024-02-04T11:24:21;9.10;99.90
41944;DHT22;27636;52.610;13.244;2024-02-04T11:29:31;9.20;99.90
41944;DHT22;27636;52.610;13.244;2024-02-04T11:34:34;9.00;99.90
41944;DHT22;27636;52.610;13.244;2024-02-04T11:39:48;9.10;99.90
41944;DHT22;27636;52.610;13.244;2024-02-04T11:45:06;9.00;99.90
41944;DHT22;27636;52.610;13.244;2024-02-04T11:50:11;9.00;99.90
41944;DHT22;27636;52.610;13.244;2024-02-04T11:55:17;9.00;99.90
41944;DHT22;27636;52.610;13.244;2024-02-04T12:00:21;9.30;99.90
41944;DHT22;27636;52.610;13.244;2024-02-04T12:05:28;9.50;99.90
41944;DHT22;27636;52.610;13.244;2024-02-04T12:10:36;9.40;99.90
41944;DHT22;27636;52.610;13.244;2024-02-04T12:15:40;9.00;99.90
41944;DHT22;27636;52.610;13.244;2024-02-04T12:20:47;8.80;99.90
41944;DHT22;27636;52.610;13.244;2024-02-04T12:25:56;8.70;99.90
41944;DHT22;27636;52.610;13.244;2024-02-04T12:31:02;8.80;99.90
41944;DHT22;27636;52.610;13.244;2024-02-04T12:36:08;8.80;99.90
41944;DHT22;27636;52.610;13.244;2024-02-04T12:41:14;8.80;99.90
41944;DHT22;27636;52.610;13.244;2024-02-04T12:46:18;8.80;99.90
41944;DHT22;27636;52.610;13.244;2024-02-04T12:51:26;8.90;99.90
41944;DHT22;27636;52.610;13.244;2024-02-04T12:56:45;8.80;99.90
41944;DHT22;27636;52.610;13.244;2024-02-04T13:01:52;8.80;99.90
41944;DHT22;27636;52.610;13.244;2024-02-04T13:06:57;8.90;99.90
41944;DHT22;27636;52.610;13.244;2024-02-04T13:12:08;8.80;99.90
41944;DHT22;27636;52.610;13.244;2024-02-04T13:17:13;9.00;99.90
41944;DHT22;27636;52.610;13.244;2024-02-04T13:22:17;8.90;99.90
41944;DHT22;27636;52.610;13.244;2024-02-04T13:27:23;8.80;99.90
41944;DHT22;27636;52.610;13.244;2024-02-04T13:32:27;8.80;99.90
41944;DHT22;27636;52.610;13.244;2024-02-04T13:37:31;8.70;99.90
41944;DHT22;27636;52.610;13.244;2024-02-04T13:42:37;8.60;99.90
41944;DHT22;27636;52.610;13.244;2024-02-04T13:47:41;8.60;99.90
41944;DHT22;27636;52.610;13.244;2024-02-04T13:52:46;8.60;99.90
41944;DHT22;27636;52.610;13.244;2024-02-04T13:57:51;8.70;99.90
41944;DHT22;27636;52.610;13.244;2024-02-04T14:02:55;8.60;99.90
41944;DHT22;27636;52.610;13.244;2024-02-04T14:08:00;8.60;99.90
41944;DHT22;27636;52.610;13.244;2024-02-04T14:13:05;8.70;99.90
41944;DHT22;27636;52.610;13.244;2024-02-04T14:18:14;8.70;99.90
41944;DHT22;27636;52.610;13.244;2024-02-04T14:23:18;8.80;99.90
41944;DHT22;27636;52.610;13.244;2024-02-04T14:28:24;8.80;99.90
41944;DHT22;27636;52.610;13.244;2024-02-04T14:33:27;8.80;99.90
41944;DHT22;27636;52.610;13.244;2024-02-04T14:38:33;8.80;99.90
41944;DHT22;27636;52.610;13.244;2024-02-04T14:43:38;8.70;99.90
41944;DHT22;27636;52.610;13.244;2024-02-04T14:48:42;8.70;99.90
41944;DHT22;27636;52.610;13.244;2024-02-04T14:53:47;8.70;99.90
41944;DHT22;27636;52.610;13.244;2024-02-04T14:58:53;8.70;99.90
41944;DHT22;27636;52.610;13.244;2024-02-04T15:04:01;8.70;99.90
41944;DHT22;27636;52.610;13.244;2024-02-04T15:09:05;8.70;99.90
41944;DHT22;27636;52.610;13.244;2024-02-04T15:14:12;8.60;99.90
41944;DHT22;27636;52.610;13.244;2024-02-04T15:19:17;8.70;99.90
41944;DHT22;27636;52.610;13.244;2024-02-04T15:24:22;8.60;99.90
41944;DHT22;27636;52.610;13.244;2024-02-04T15:29:29;8.60;99.90
41944;DHT22;27636;52.610;13.244;2024-02-04T15:34:35;8.60;99.90
41944;DHT22;27636;52.610;13.244;2024-02-04T15:39:40;8.60;99.90
41944;DHT22;27636;52.610;13.244;2024-02-04T15:44:45;8.60;99.90
41944;DHT22;27636;52.610;13.244;2024-02-04T15:49:50;8.60;99.90
41944;DHT22;27636;52.610;13.244;2024-02-04T15:54:54;8.60;99.90
41944;DHT22;27636;52.610;13.244;2024-02-04T16:00:04;8.60;99.90
41944;DHT22;27636;52.610;13.244;2024-02-04T16:05:30;8.50;99.90
41944;DHT22;27636;52.610;13.244;2024-02-04T16:10:40;8.50;99.90
41944;DHT22;27636;52.610;13.244;2024-02-04T16:15:48;8.50;99.90
41944;DHT22;27636;52.610;13.244;2024-02-04T16:20:56;8.50;99.90
41944;DHT22;27636;52.610;13.244;2024-02-04T16:26:00;8.50;99.90
41944;DHT22;27636;52.610;13.244;2024-02-04T16:31:09;8.60;99.90
41944;DHT22;27636;52.610;13.244;2024-02-04T16:36:15;8.50;99.90
41944;DHT22;27636;52.610;13.244;2024-02-04T16:41:20;8.60;99.90
41944;DHT22;27636;52.610;13.244;2024-02-04T16:46:26;8.70;99.90
41944;DHT22;27636;52.610;13.244;2024-02-04T16:51:29;8.60;99.90
41944;DHT22;27636;52.610;13.244;2024-02-04T16:56:34;8.60;99.90
41944;DHT22;27636;52.610;13.244;2024-02-04T17:01:40;8.60;99.90
41944;DHT22;27636;52.610;13.244;2024-02-04T17:06:46;8.60;99.90
41944;DHT22;27636;52.610;13.244;2024-02-04T17:11:51;8.60;99.90
41944;DHT22;27636;52.610;13.244;2024-02-04T17:17:04;8.60;99.90
41944;DHT22;27636;52.610;13.244;2024-02-04T17:22:15;8.60;99.90
41944;DHT22;27636;52.610;13.244;2024-02-04T17:27:25;8.60;99.90
41944;DHT22;27636;52.610;13.244;2024-02-04T17:32:34;8.70;99.90
41944;DHT22;27636;52.610;13.244;2024-02-04T17:37:42;8.60;99.90
41944;DHT22;27636;52.610;13.244;2024-02-04T17:42:49;8.70;99.90
41944;DHT22;27636;52.610;13.244;2024-02-04T17:48:01;8.60;99.90
41944;DHT22;27636;52.610;13.244;2024-02-04T17:53:08;8.60;99.90
41944;DHT22;27636;52.610;13.244;2024-02-04T17:58:14;8.60;99.90
41944;DHT22;27636;52.610;13.244;2024-02-04T18:03:20;8.60;99.90
41944;DHT22;27636;52.610;13.244;2024-02-04T18:08:25;8.60;99.90
41944;DHT22;27636;52.610;13.244;2024-02-04T18:13:32;8.50;99.90
41944;DHT22;27636;52.610;13.244;2024-02-04T18:18:40;8.50;99.90
41944;DHT22;27636;52.610;13.244;2024-02-04T18:23:45;8.50;99.90
41944;DHT22;27636;52.610;13.244;2024-02-04T18:28:51;8.50;99.90
41944;DHT22;27636;52.610;13.244;2024-02-04T18:34:01;8.50;99.90
41944;DHT22;27636;52.610;13.244;2024-02-04T18:39:05;8.30;99.90
41944;DHT22;27636;52.610;13.244;2024-02-04T18:44:13;8.40;99.90
41944;DHT22;27636;52.610;13.244;2024-02-04T18:49:20;8.20;99.90
41944;DHT22;27636;52.610;13.244;2024-02-04T18:54:24;8.20;99.90
41944;DHT22;27636;52.610;13.244;2024-02-04T18:59:34;8.30;99.90
41944;DHT22;27636;52.610;13.244;2024-02-04T19:04:41;8.20;99.90
41944;DHT22;27636;52.610;13.244;2024-02-04T19:09:45;8.20;99.90
41944;DHT22;27636;52.610;13.244;2024-02-04T19:14:49;8.10;99.90
41944;DHT22;27636;52.610;13.244;2024-02-04T19:19:58;8.20;99.90
41944;DHT22;27636;52.610;13.244;2024-02-04T19:25:03;8.20;99.90
41944;DHT22;27636;52.610;13.244;2024-02-04T19:30:08;8.20;99.90
41944;DHT22;27636;52.610;13.244;2024-02-04T19:35:18;8.20;99.90
41944;DHT22;27636;52.610;13.244;2024-02-04T19:40:25;8.30;99.90
41944;DHT22;27636;52.610;13.244;2024-02-04T19:45:28;8.20;99.90
41944;DHT22;27636;52.610;13.244;2024-02-04T19:50:35;8.20;99.90
41944;DHT22;27636;52.610;13.244;2024-02-04T19:55:39;8.20;99.90
41944;DHT22;27636;52.610;13.244;2024-02-04T20:00:43;8.10;99.90
41944;DHT22;27636;52.610;13.244;2024-02-04T20:05:50;8.10;99.90
41944;DHT22;27636;52.610;13.244;2024-02-04T20:10:55;8.10;99.90
41944;DHT22;27636;52.610;13.244;2024-02-04T20:15:59;8.00;99.90
41944;DHT22;27636;52.610;13.244;2024-02-04T20:21:12;8.00;99.90
41944;DHT22;27636;52.610;13.244;2024-02-04T20:26:17;8.00;99.90
41944;DHT22;27636;52.610;13.244;2024-02-04T20:31:22;8.00;99.90
41944;DHT22;27636;52.610;13.244;2024-02-04T20:36:27;7.90;99.90
41944;DHT22;27636;52.610;13.244;2024-02-04T20:41:31;7.80;99.90
41944;DHT22;27636;52.610;13.244;2024-02-04T20:46:40;7.70;99.90
41944;DHT22;27636;52.610;13.244;2024-02-04T20:51:48;7.70;99.90
41944;DHT22;27636;52.610;13.244;2024-02-04T20:56:52;7.50;99.90
41944;DHT22;27636;52.610;13.244;2024-02-04T21:01:56;7.40;99.90
41944;DHT22;27636;52.610;13.244;2024-02-04T21:07:01;7.40;99.90
41944;DHT22;27636;52.610;13.244;2024-02-04T21:12:06;7.40;99.90
41944;DHT22;27636;52.610;13.244;2024-02-04T21:17:09;7.30;99.90
41944;DHT22;27636;52.610;13.244;2024-02-04T21:22:19;7.20;99.90
41944;DHT22;27636;52.610;13.244;2024-02-04T21:27:24;7.10;99.90
41944;DHT22;27636;52.610;13.244;2024-02-04T21:32:29;7.10;99.90
41944;DHT22;27636;52.610;13.244;2024-02-04T21:37:35;7.00;99.90
41944;DHT22;27636;52.610;13.244;2024-02-04T21:42:39;7.00;99.90
41944;DHT22;27636;52.610;13.244;2024-02-04T21:47:44;7.00;99.90
41944;DHT22;27636;52.610;13.244;2024-02-04T21:52:51;7.00;99.90
41944;DHT22;27636;52.610;13.244;2024-02-04T21:57:56;7.00;99.90
41944;DHT22;27636;52.610;13.244;2024-02-04T22:03:00;6.90;99.90
41944;DHT22;27636;52.610;13.244;2024-02-04T22:08:06;7.10;99.90
41944;DHT22;27636;52.610;13.244;2024-02-04T22:13:10;7.00;99.90
41944;DHT22;27636;52.610;13.244;2024-02-04T22:18:15;6.90;99.90
41944;DHT22;27636;52.610;13.244;2024-02-04T22:23:21;7.00;99.90
41944;DHT22;27636;52.610;13.244;2024-02-04T22:28:26;7.10;99.90
41944;DHT22;27636;52.610;13.244;2024-02-04T22:33:30;7.00;99.90
41944;DHT22;27636;52.610;13.244;2024-02-04T22:38:35;7.00;99.90
41944;DHT22;27636;52.610;13.244;2024-02-04T22:43:39;7.10;99.90
41944;DHT22;27636;52.610;13.244;2024-02-04T22:48:43;7.10;99.90
41944;DHT22;27636;52.610;13.244;2024-02-04T22:53:52;7.10;99.90
41944;DHT22;27636;52.610;13.244;2024-02-04T22:58:57;7.20;99.90
41944;DHT22;27636;52.610;13.244;2024-02-04T23:04:02;7.20;99.90
41944;DHT22;27636;52.610;13.244;2024-02-04T23:09:08;7.20;99.90
41944;DHT22;27636;52.610;13.244;2024-02-04T23:14:16;7.30;99.90
41944;DHT22;27636;52.610;13.244;2024-02-04T23:19:20;7.10;99.90
41944;DHT22;27636;52.610;13.244;2024-02-04T23:24:26;7.20;99.90
41944;DHT22;27636;52.610;13.244;2024-02-04T23:29:30;7.10;99.90
41944;DHT22;27636;52.610;13.244;2024-02-04T23:34:34;7.10;99.90
41944;DHT22;27636;52.610;13.244;2024-02-04T23:39:40;7.20;99.90
41944;DHT22;27636;52.610;13.244;2024-02-04T23:44:44;7.20;99.90
41944;DHT22;27636;52.610;13.244;2024-02-04T23:49:49;7.30;99.90
41944;DHT22;27636;52.610;13.244;2024-02-04T23:54:56;7.30;99.90
